Milton, FL

12:40 PM CDT on July 30, 2015 (GMT -0500)
Milton, FL | | Change Station
CLOSE
Current Station
Personal Weather Station
Location: Milton, FL
Elevation: 170 ft
Nearby Weather Stations
Active Advisory: Heat Advisory

Elev 170 ft 30.65 °N, 87.06 °W | Updated 3 seconds ago

Mostly Cloudy
Mostly Cloudy
96.4 °F
Feels Like 117 °F
N
0.0
Wind Variable Wind from East
Gusts 4.0 mph

Today
High -- | Low -- °F
--% Chance of Precip.
Yesterday
High -- | Low -- °F
Precip. -- in
6:04 AM 7:44 PM
Waxing Gibbous, 99% visible
Pressure 29.93 in
Visibility 10.0 miles
Clouds Few 3500 ft
Few 6000 ft
Scattered Clouds 12000 ft
Mostly Cloudy 25000 ft
Heat Index 117 °F
Dew Point 80 °F
Humidity 60%
Rainfall 0.00 in
Snow Depth Not available.
UV 7 out of 12
Pollen 1.80 out of 12
Air Quality Not available.
Flu Activity Not available.
METAR KNDZ 301656Z 34008KT 10SM FEW035 FEW060 SCT120 BKN250 34/27 A2997 RMK AO2 SLP134 T03440267 $

More Conditions Fewer Conditions

Pressure 29.93 in
Visibility 10.0 miles
Clouds Few 3500 ft
Few 6000 ft
Scattered Clouds 12000 ft
Mostly Cloudy 25000 ft
Heat Index 117 °F
Dew Point 80 °F
Humidity 60%
Rainfall 0.00 in
Snow Depth Not available.
UV 7 out of 12
Pollen 1.80 out of 12
Air Quality Not available.
Flu Activity Not available.
METAR KNDZ 301656Z 34008KT 10SM FEW035 FEW060 SCT120 BKN250 34/27 A2997 RMK AO2 SLP134 T03440267 $

More Conditions Fewer Conditions

10-Day Weather Forecast

×

Almanac

Astronomy

Jul. 30, 2015 Rise Set
Actual Time
Civil Twilight
Nautical Twilight
Astronomical Twilight
Moon
Length of Visible Light
Length of Day
Tomorrow will be .
, % of the Moon is Illuminated

Today's Extremes

State Highs State Lows

Community

WunderPhotos

Upload Photos

1,842,428 photos uploaded!

WunderBlogs® & News

Nearby

Air Quality

  Air Quality AQ Index Pollutant
Not available.

Snow Depth

Station Depth Elevation

Earthquake Activity

City Distance Mag. Time & Date
Minimum magnitude displayed is 2.5.

Coastal Water Temperatures

Place Temperature

Stations

Nearby Weather Stations

Station Location Temp. Windchill Dew Point Humidity Wind Precip. Elev Updated Type
                   
Heat Advisory
Statement as of 12:13 PM CDT on July 30, 2015

... Heat advisory in effect until 6 PM CDT this evening...

The National Weather Service in Mobile has issued a heat
advisory... which is in effect until 6 PM CDT this evening.

* Temperature... afternoon highs between 93 and 98 degrees at most
locations.

* Heat index... maximum readings between 108 and 112 degrees.

* Impacts... hot temperatures and high humidity could lead to heat
related illnesses.

Precautionary/preparedness actions...

A heat advisory means that a period of hot temperatures is expected.
The combination of hot temperatures and high humidity will combine to
create a situation in which heat illnesses are possible. Drink plenty
of fluids... stay in an air-conditioned room... stay out of the sun...
and check up on relatives and neighbors.